F/V Face A La Mer — FGA3236 — position and weather

sailwx.info

Track history (hours):
 
Tides and Currents Weather Stations Pressure Air Temp Water Temp Dewpoint Dewpoint Depression Visibility Wind Speed Wind Dir Waves Ship Positions

F/V Face A La Mer

Last reported at 2017-Nov-23 23:48 UTC. Time now 2017-Nov-24 09:35 UTC.
Position N 48°06' W 004°19'.

Length 14 m.

Type: Fishing. MMSI: 227315190.

Date/timePositionNaut miles runAvg speedWind from/ knotsBaromVisibWave heightAir tempDewpointWater temp
2017-Nov-23 23:48N 48°06' W 004°19'0 0.0
2017-Nov-23 23:24N 48°06' W 004°19'0 0.0
2017-Nov-23 22:54N 48°06' W 004°19'0 0.2
2017-Nov-23 21:54N 48°06' W 004°20'0 0.0
2017-Nov-23 21:27N 48°06' W 004°20'0 0.0
2017-Nov-23 20:51N 48°06' W 004°20'0 0.0
2017-Nov-23 20:15N 48°06' W 004°20'0 1.0
2017-Nov-23 20:00N 48°06' W 004°19'4 8.7
2017-Nov-23 19:30N 48°10' W 004°23'2 4.0
2017-Nov-23 19:00N 48°11' W 004°25'0 0.4
2017-Nov-23 18:30N 48°11' W 004°25'0 0.6
2017-Nov-23 17:59N 48°11' W 004°24'0 0.3
2017-Nov-23 17:30N 48°11' W 004°24'1 2.7
2017-Nov-23 17:00N 48°12' W 004°24'0 0.2
2017-Nov-23 16:26N 48°12' W 004°24'2 5.2
2017-Nov-23 15:58N 48°10' W 004°22'4 8.1
2017-Nov-23 15:25N 48°06' W 004°19'0 0.5
2017-Nov-23 14:58N 48°06' W 004°19'  
2017-Nov-20 00:10N 48°06' W 004°19'0 1.3
2017-Nov-19 23:59N 48°06' W 004°20'0 0.1
2017-Nov-19 23:17N 48°06' W 004°20'0 0.0
2017-Nov-19 22:59N 48°06' W 004°20'0 0.0
2017-Nov-19 21:20N 48°06' W 004°20'3 6.6
2017-Nov-19 20:56N 48°07' W 004°23'4 8.6
2017-Nov-19 20:26N 48°06' W 004°29'0 0.9
2017-Nov-19 19:58N 48°06' W 004°30'1 1.2
2017-Nov-19 19:29N 48°06' W 004°31'0 0.3
2017-Nov-19 19:00N 48°06' W 004°31'0 0.4
2017-Nov-19 18:30N 48°06' W 004°31'0 0.5
2017-Nov-19 18:00N 48°06' W 004°31'4 8.3
2017-Nov-19 17:30N 48°09' W 004°27'0 0.3
2017-Nov-19 16:56N 48°09' W 004°27'2 4.4
2017-Nov-19 16:29N 48°09' W 004°24'3 6.1
2017-Nov-19 16:00N 48°08' W 004°20'1 2.1
2017-Nov-19 15:27N 48°07' W 004°18'1 3.0
2017-Nov-19 14:59N 48°06' W 004°19'  
2017-Nov-16 23:59N 48°06' W 004°19'0 0.3
2017-Nov-16 23:30N 48°06' W 004°19'0 0.0
2017-Nov-16 22:54N 48°06' W 004°19'0 0.2
2017-Nov-16 22:25N 48°06' W 004°19'4 8.7
2017-Nov-16 22:00N 48°09' W 004°23'4 8.8
2017-Nov-16 21:30N 48°11' W 004°28'0 0.1
2017-Nov-16 21:00N 48°11' W 004°28'1 1.3
2017-Nov-16 20:25N 48°11' W 004°29'4 8.8
2017-Nov-16 19:59N 48°07' W 004°29'2 3.4
2017-Nov-16 19:28N 48°06' W 004°31'1 1.3
2017-Nov-16 18:58N 48°06' W 004°30'0 0.6
2017-Nov-16 18:25N 48°06' W 004°31'1 2.7
2017-Nov-16 17:59N 48°07' W 004°30'3 4.4
2017-Nov-16 17:20N 48°09' W 004°27'0 0.3
2017-Nov-16 17:00N 48°09' W 004°27'1 1.7
2017-Nov-16 16:28N 48°09' W 004°26'1 1.9
2017-Nov-16 16:00N 48°08' W 004°26'5 9.0
2017-Nov-16 15:27N 48°06' W 004°19'0 0.7
2017-Nov-16 14:56N 48°06' W 004°19'0 0.0
2017-Nov-15 23:34N 48°06' W 004°19'0 1.6
2017-Nov-15 23:30N 48°06' W 004°19'0 0.2
2017-Nov-15 22:13N 48°06' W 004°20'0 0.0
2017-Nov-15 21:58N 48°06' W 004°20'0 0.0
2017-Nov-15 21:25N 48°06' W 004°20'3 7.2
2017-Nov-15 21:00N 48°09' W 004°22'4 7.7
2017-Nov-15 20:30N 48°09' W 004°28'3 4.9
2017-Nov-15 19:58N 48°07' W 004°30'2 4.9
2017-Nov-15 19:30N 48°07' W 004°33'1 1.5
2017-Nov-15 18:58N 48°06' W 004°33'1 2.4
2017-Nov-15 18:28N 48°06' W 004°31'2 4.1
2017-Nov-15 18:00N 48°07' W 004°29'2 2.8
2017-Nov-15 17:26N 48°08' W 004°28'0 0.3
2017-Nov-15 16:59N 48°08' W 004°28'1 0.9
2017-Nov-15 16:05N 48°08' W 004°27'0 3.1
2017-Nov-15 15:59N 48°08' W 004°27'4 8.1
2017-Nov-15 15:28N 48°07' W 004°21'2 0.1
2017-Nov-14 21:34N 48°06' W 004°19'0 0.9
2017-Nov-14 21:30N 48°06' W 004°19'0 0.1
2017-Nov-14 20:49N 48°06' W 004°19'0 0.0
2017-Nov-14 20:19N 48°06' W 004°19'0 0.0
2017-Nov-14 19:58N 48°06' W 004°19'0 0.0
2017-Nov-14 19:31N 48°06' W 004°19'4 6.9
2017-Nov-14 18:59N 48°07' W 004°25'5 8.4
2017-Nov-14 18:25N 48°07' W 004°32'4 9.0
2017-Nov-14 18:00N 48°07' W 004°26'1 2.0
2017-Nov-14 17:31N 48°08' W 004°27'1 1.9
2017-Nov-14 16:53N 48°08' W 004°25'0 0.1
2017-Nov-14 16:29N 48°08' W 004°25'2 5.0
2017-Nov-14 16:00N 48°09' W 004°22'4 7.8
2017-Nov-14 15:30N 48°06' W 004°19'0 0.0
2017-Nov-14 14:57N 48°06' W 004°19'0 0.0
2017-Nov-14 02:29N 48°06' W 004°19'2 4.3
2017-Nov-14 01:58N 48°07' W 004°22'2 2.8
2017-Nov-14 01:21N 48°08' W 004°24'0 0.9
2017-Nov-14 00:58N 48°08' W 004°24'4 9.0
2017-Nov-14 00:30N 48°07' W 004°30'2 4.3
2017-Nov-14 00:00N 48°09' W 004°30'  
Track history (hours):
 
Tides and Currents Weather Stations Pressure Air Temp Water Temp Dewpoint Dewpoint Depression Visibility Wind Speed Wind Dir Waves Ship Positions

F/V Face A La Mer

Last reported at 2017-Nov-23 23:48 UTC. Time now 2017-Nov-24 09:35 UTC.
Position N 48°06' W 004°19'.

Length 14 m.

Type: Fishing. MMSI: 227315190.

Date/timePositionNaut miles runAvg speedWind from/ knotsBaromVisibWave heightAir tempDewpointWater temp
2017-Nov-23 23:48N 48°06' W 004°19'0 0.0
2017-Nov-23 23:24N 48°06' W 004°19'0 0.0
2017-Nov-23 22:54N 48°06' W 004°19'0 0.2
2017-Nov-23 21:54N 48°06' W 004°20'0 0.0
2017-Nov-23 21:27N 48°06' W 004°20'0 0.0
2017-Nov-23 20:51N 48°06' W 004°20'0 0.0
2017-Nov-23 20:15N 48°06' W 004°20'0 1.0
2017-Nov-23 20:00N 48°06' W 004°19'4 8.7
2017-Nov-23 19:30N 48°10' W 004°23'2 4.0
2017-Nov-23 19:00N 48°11' W 004°25'0 0.4
2017-Nov-23 18:30N 48°11' W 004°25'0 0.6
2017-Nov-23 17:59N 48°11' W 004°24'0 0.3
2017-Nov-23 17:30N 48°11' W 004°24'1 2.7
2017-Nov-23 17:00N 48°12' W 004°24'0 0.2
2017-Nov-23 16:26N 48°12' W 004°24'2 5.2
2017-Nov-23 15:58N 48°10' W 004°22'4 8.1
2017-Nov-23 15:25N 48°06' W 004°19'0 0.5
2017-Nov-23 14:58N 48°06' W 004°19'  
2017-Nov-20 00:10N 48°06' W 004°19'0 1.3
2017-Nov-19 23:59N 48°06' W 004°20'0 0.1
2017-Nov-19 23:17N 48°06' W 004°20'0 0.0
2017-Nov-19 22:59N 48°06' W 004°20'0 0.0
2017-Nov-19 21:20N 48°06' W 004°20'3 6.6
2017-Nov-19 20:56N 48°07' W 004°23'4 8.6
2017-Nov-19 20:26N 48°06' W 004°29'0 0.9
2017-Nov-19 19:58N 48°06' W 004°30'1 1.2
2017-Nov-19 19:29N 48°06' W 004°31'0 0.3
2017-Nov-19 19:00N 48°06' W 004°31'0 0.4
2017-Nov-19 18:30N 48°06' W 004°31'0 0.5
2017-Nov-19 18:00N 48°06' W 004°31'4 8.3
2017-Nov-19 17:30N 48°09' W 004°27'0 0.3
2017-Nov-19 16:56N 48°09' W 004°27'2 4.4
2017-Nov-19 16:29N 48°09' W 004°24'3 6.1
2017-Nov-19 16:00N 48°08' W 004°20'1 2.1
2017-Nov-19 15:27N 48°07' W 004°18'1 3.0
2017-Nov-19 14:59N 48°06' W 004°19'  
2017-Nov-16 23:59N 48°06' W 004°19'0 0.3
2017-Nov-16 23:30N 48°06' W 004°19'0 0.0
2017-Nov-16 22:54N 48°06' W 004°19'0 0.2
2017-Nov-16 22:25N 48°06' W 004°19'4 8.7
2017-Nov-16 22:00N 48°09' W 004°23'4 8.8
2017-Nov-16 21:30N 48°11' W 004°28'0 0.1
2017-Nov-16 21:00N 48°11' W 004°28'1 1.3
2017-Nov-16 20:25N 48°11' W 004°29'4 8.8
2017-Nov-16 19:59N 48°07' W 004°29'2 3.4
2017-Nov-16 19:28N 48°06' W 004°31'1 1.3
2017-Nov-16 18:58N 48°06' W 004°30'0 0.6
2017-Nov-16 18:25N 48°06' W 004°31'1 2.7
2017-Nov-16 17:59N 48°07' W 004°30'3 4.4
2017-Nov-16 17:20N 48°09' W 004°27'0 0.3
2017-Nov-16 17:00N 48°09' W 004°27'1 1.7
2017-Nov-16 16:28N 48°09' W 004°26'1 1.9
2017-Nov-16 16:00N 48°08' W 004°26'5 9.0
2017-Nov-16 15:27N 48°06' W 004°19'0 0.7
2017-Nov-16 14:56N 48°06' W 004°19'0 0.0
2017-Nov-15 23:34N 48°06' W 004°19'0 1.6
2017-Nov-15 23:30N 48°06' W 004°19'0 0.2
2017-Nov-15 22:13N 48°06' W 004°20'0 0.0
2017-Nov-15 21:58N 48°06' W 004°20'0 0.0
2017-Nov-15 21:25N 48°06' W 004°20'3 7.2
2017-Nov-15 21:00N 48°09' W 004°22'4 7.7
2017-Nov-15 20:30N 48°09' W 004°28'3 4.9
2017-Nov-15 19:58N 48°07' W 004°30'2 4.9
2017-Nov-15 19:30N 48°07' W 004°33'1 1.5
2017-Nov-15 18:58N 48°06' W 004°33'1 2.4
2017-Nov-15 18:28N 48°06' W 004°31'2 4.1
2017-Nov-15 18:00N 48°07' W 004°29'2 2.8
2017-Nov-15 17:26N 48°08' W 004°28'0 0.3
2017-Nov-15 16:59N 48°08' W 004°28'1 0.9
2017-Nov-15 16:05N 48°08' W 004°27'0 3.1
2017-Nov-15 15:59N 48°08' W 004°27'4 8.1
2017-Nov-15 15:28N 48°07' W 004°21'2 0.1
2017-Nov-14 21:34N 48°06' W 004°19'0 0.9
2017-Nov-14 21:30N 48°06' W 004°19'0 0.1
2017-Nov-14 20:49N 48°06' W 004°19'0 0.0
2017-Nov-14 20:19N 48°06' W 004°19'0 0.0
2017-Nov-14 19:58N 48°06' W 004°19'0 0.0
2017-Nov-14 19:31N 48°06' W 004°19'4 6.9
2017-Nov-14 18:59N 48°07' W 004°25'5 8.4
2017-Nov-14 18:25N 48°07' W 004°32'4 9.0
2017-Nov-14 18:00N 48°07' W 004°26'1 2.0
2017-Nov-14 17:31N 48°08' W 004°27'1 1.9
2017-Nov-14 16:53N 48°08' W 004°25'0 0.1
2017-Nov-14 16:29N 48°08' W 004°25'2 5.0
2017-Nov-14 16:00N 48°09' W 004°22'4 7.8
2017-Nov-14 15:30N 48°06' W 004°19'0 0.0
2017-Nov-14 14:57N 48°06' W 004°19'0 0.0
2017-Nov-14 02:29N 48°06' W 004°19'2 4.3
2017-Nov-14 01:58N 48°07' W 004°22'2 2.8
2017-Nov-14 01:21N 48°08' W 004°24'0 0.9
2017-Nov-14 00:58N 48°08' W 004°24'4 9.0
2017-Nov-14 00:30N 48°07' W 004°30'2 4.3
2017-Nov-14 00:00N 48°09' W 004°30'  

Dump ship's entire track history